sensor_id;sensor_type;location;lat;lon;timestamp;P1;durP1;ratioP1;P2;durP2;ratioP2
37483;SDS011;23337;52.212;9.926;2023-03-16T00:01:38;3.80;;;2.00;;
37483;SDS011;23337;52.212;9.926;2023-03-16T00:04:04;6.13;;;2.50;;
37483;SDS011;23337;52.212;9.926;2023-03-16T00:06:30;4.83;;;1.83;;
37483;SDS011;23337;52.212;9.926;2023-03-16T00:08:56;4.33;;;2.27;;
37483;SDS011;23337;52.212;9.926;2023-03-16T00:11:22;3.77;;;1.60;;
37483;SDS011;23337;52.212;9.926;2023-03-16T00:13:48;5.00;;;2.10;;
37483;SDS011;23337;52.212;9.926;2023-03-16T00:16:14;3.00;;;1.57;;
37483;SDS011;23337;52.212;9.926;2023-03-16T00:18:41;6.67;;;2.27;;
37483;SDS011;23337;52.212;9.926;2023-03-16T00:21:07;5.63;;;2.37;;
37483;SDS011;23337;52.212;9.926;2023-03-16T00:23:33;4.07;;;2.00;;
37483;SDS011;23337;52.212;9.926;2023-03-16T00:26:01;5.17;;;1.77;;
37483;SDS011;23337;52.212;9.926;2023-03-16T00:28:27;3.50;;;1.70;;
37483;SDS011;23337;52.212;9.926;2023-03-16T00:30:58;4.20;;;1.63;;
37483;SDS011;23337;52.212;9.926;2023-03-16T00:33:24;5.80;;;1.70;;
37483;SDS011;23337;52.212;9.926;2023-03-16T00:35:50;4.30;;;1.90;;
37483;SDS011;23337;52.212;9.926;2023-03-16T00:38:26;4.77;;;1.80;;
37483;SDS011;23337;52.212;9.926;2023-03-16T00:40:52;4.50;;;1.63;;
37483;SDS011;23337;52.212;9.926;2023-03-16T00:43:18;7.20;;;2.00;;
37483;SDS011;23337;52.212;9.926;2023-03-16T00:45:45;4.23;;;1.80;;
37483;SDS011;23337;52.212;9.926;2023-03-16T00:48:11;2.80;;;1.30;;
37483;SDS011;23337;52.212;9.926;2023-03-16T00:50:37;5.63;;;3.47;;
37483;SDS011;23337;52.212;9.926;2023-03-16T00:53:03;5.60;;;2.37;;
37483;SDS011;23337;52.212;9.926;2023-03-16T00:55:30;6.20;;;2.10;;
37483;SDS011;23337;52.212;9.926;2023-03-16T00:57:56;3.20;;;2.03;;
37483;SDS011;23337;52.212;9.926;2023-03-16T01:00:22;2.90;;;1.57;;
37483;SDS011;23337;52.212;9.926;2023-03-16T01:02:52;4.37;;;1.63;;
37483;SDS011;23337;52.212;9.926;2023-03-16T01:05:18;2.90;;;1.73;;
37483;SDS011;23337;52.212;9.926;2023-03-16T01:07:44;6.33;;;1.70;;
37483;SDS011;23337;52.212;9.926;2023-03-16T01:10:10;1.97;;;1.60;;
37483;SDS011;23337;52.212;9.926;2023-03-16T01:12:36;7.70;;;1.70;;
37483;SDS011;23337;52.212;9.926;2023-03-16T01:15:02;5.13;;;1.33;;
37483;SDS011;23337;52.212;9.926;2023-03-16T01:17:28;4.97;;;1.33;;
37483;SDS011;23337;52.212;9.926;2023-03-16T01:19:58;2.63;;;1.40;;
37483;SDS011;23337;52.212;9.926;2023-03-16T01:22:24;4.67;;;1.63;;
37483;SDS011;23337;52.212;9.926;2023-03-16T01:24:51;2.73;;;1.40;;
37483;SDS011;23337;52.212;9.926;2023-03-16T01:27:17;3.27;;;1.43;;
37483;SDS011;23337;52.212;9.926;2023-03-16T01:29:43;4.47;;;1.80;;
37483;SDS011;23337;52.212;9.926;2023-03-16T01:32:09;2.90;;;1.40;;
37483;SDS011;23337;52.212;9.926;2023-03-16T01:34:36;6.23;;;1.93;;
37483;SDS011;23337;52.212;9.926;2023-03-16T01:37:02;3.60;;;1.73;;
37483;SDS011;23337;52.212;9.926;2023-03-16T01:39:27;4.50;;;1.43;;
37483;SDS011;23337;52.212;9.926;2023-03-16T01:41:53;1.87;;;1.20;;
37483;SDS011;23337;52.212;9.926;2023-03-16T01:44:24;2.57;;;1.13;;
37483;SDS011;23337;52.212;9.926;2023-03-16T01:46:56;2.73;;;1.70;;
37483;SDS011;23337;52.212;9.926;2023-03-16T01:49:26;4.97;;;1.60;;
37483;SDS011;23337;52.212;9.926;2023-03-16T01:52:01;7.13;;;1.57;;
37483;SDS011;23337;52.212;9.926;2023-03-16T01:59:36;5.57;;;1.50;;
37483;SDS011;23337;52.212;9.926;2023-03-16T02:02:03;3.97;;;1.40;;
37483;SDS011;23337;52.212;9.926;2023-03-16T02:07:14;3.57;;;1.30;;
37483;SDS011;23337;52.212;9.926;2023-03-16T02:09:41;3.93;;;1.33;;
37483;SDS011;23337;52.212;9.926;2023-03-16T02:12:10;5.37;;;1.37;;
37483;SDS011;23337;52.212;9.926;2023-03-16T02:14:42;5.20;;;2.27;;
37483;SDS011;23337;52.212;9.926;2023-03-16T02:17:08;5.53;;;1.53;;
37483;SDS011;23337;52.212;9.926;2023-03-16T02:19:37;4.93;;;1.57;;
37483;SDS011;23337;52.212;9.926;2023-03-16T02:22:06;3.33;;;1.57;;
37483;SDS011;23337;52.212;9.926;2023-03-16T02:24:33;4.80;;;1.50;;
37483;SDS011;23337;52.212;9.926;2023-03-16T02:27:02;2.50;;;1.43;;
37483;SDS011;23337;52.212;9.926;2023-03-16T02:32:07;2.60;;;1.47;;
37483;SDS011;23337;52.212;9.926;2023-03-16T02:34:33;3.60;;;1.60;;
37483;SDS011;23337;52.212;9.926;2023-03-16T02:36:59;3.33;;;1.87;;
37483;SDS011;23337;52.212;9.926;2023-03-16T02:39:25;5.40;;;1.93;;
37483;SDS011;23337;52.212;9.926;2023-03-16T02:41:51;6.43;;;2.33;;
37483;SDS011;23337;52.212;9.926;2023-03-16T02:44:22;7.33;;;2.70;;
37483;SDS011;23337;52.212;9.926;2023-03-16T02:46:50;5.57;;;2.10;;
37483;SDS011;23337;52.212;9.926;2023-03-16T02:49:31;3.87;;;2.00;;
37483;SDS011;23337;52.212;9.926;2023-03-16T02:51:58;7.73;;;2.20;;
37483;SDS011;23337;52.212;9.926;2023-03-16T02:54:24;3.90;;;1.90;;
37483;SDS011;23337;52.212;9.926;2023-03-16T02:56:50;3.27;;;1.30;;
37483;SDS011;23337;52.212;9.926;2023-03-16T02:59:16;3.30;;;1.47;;
37483;SDS011;23337;52.212;9.926;2023-03-16T03:01:42;3.10;;;1.83;;
37483;SDS011;23337;52.212;9.926;2023-03-16T03:04:08;3.50;;;1.30;;
37483;SDS011;23337;52.212;9.926;2023-03-16T03:06:34;4.53;;;1.70;;
37483;SDS011;23337;52.212;9.926;2023-03-16T03:09:00;2.60;;;1.30;;
37483;SDS011;23337;52.212;9.926;2023-03-16T03:11:26;6.67;;;1.70;;
37483;SDS011;23337;52.212;9.926;2023-03-16T03:13:53;4.00;;;1.47;;
37483;SDS011;23337;52.212;9.926;2023-03-16T03:16:19;2.97;;;1.87;;
37483;SDS011;23337;52.212;9.926;2023-03-16T03:18:45;6.20;;;1.40;;
37483;SDS011;23337;52.212;9.926;2023-03-16T03:21:11;3.50;;;1.60;;
37483;SDS011;23337;52.212;9.926;2023-03-16T03:23:37;4.30;;;1.90;;
37483;SDS011;23337;52.212;9.926;2023-03-16T03:26:03;5.03;;;1.37;;
37483;SDS011;23337;52.212;9.926;2023-03-16T03:28:29;5.37;;;1.60;;
37483;SDS011;23337;52.212;9.926;2023-03-16T03:30:55;3.37;;;1.33;;
37483;SDS011;23337;52.212;9.926;2023-03-16T03:33:21;2.50;;;1.50;;
37483;SDS011;23337;52.212;9.926;2023-03-16T03:35:54;3.10;;;2.00;;
37483;SDS011;23337;52.212;9.926;2023-03-16T03:38:21;3.20;;;1.57;;
37483;SDS011;23337;52.212;9.926;2023-03-16T03:40:50;3.47;;;1.50;;
37483;SDS011;23337;52.212;9.926;2023-03-16T03:43:17;2.17;;;1.20;;
37483;SDS011;23337;52.212;9.926;2023-03-16T03:45:43;3.10;;;1.23;;
37483;SDS011;23337;52.212;9.926;2023-03-16T03:48:12;4.20;;;1.97;;
37483;SDS011;23337;52.212;9.926;2023-03-16T03:50:38;2.77;;;1.20;;
37483;SDS011;23337;52.212;9.926;2023-03-16T03:53:04;3.33;;;1.20;;
37483;SDS011;23337;52.212;9.926;2023-03-16T03:55:31;3.03;;;1.37;;
37483;SDS011;23337;52.212;9.926;2023-03-16T03:57:57;3.50;;;1.57;;
37483;SDS011;23337;52.212;9.926;2023-03-16T04:00:22;3.47;;;1.00;;
37483;SDS011;23337;52.212;9.926;2023-03-16T04:02:48;4.70;;;1.33;;
37483;SDS011;23337;52.212;9.926;2023-03-16T04:05:15;2.73;;;1.10;;
37483;SDS011;23337;52.212;9.926;2023-03-16T04:07:41;5.47;;;1.30;;
37483;SDS011;23337;52.212;9.926;2023-03-16T04:10:07;7.60;;;1.60;;
37483;SDS011;23337;52.212;9.926;2023-03-16T04:12:33;3.33;;;1.10;;
37483;SDS011;23337;52.212;9.926;2023-03-16T04:14:59;4.27;;;1.40;;
37483;SDS011;23337;52.212;9.926;2023-03-16T04:17:25;4.93;;;1.63;;
37483;SDS011;23337;52.212;9.926;2023-03-16T04:19:51;2.37;;;1.40;;
37483;SDS011;23337;52.212;9.926;2023-03-16T04:22:17;4.20;;;1.30;;
37483;SDS011;23337;52.212;9.926;2023-03-16T04:24:43;2.57;;;1.30;;
37483;SDS011;23337;52.212;9.926;2023-03-16T04:27:09;2.33;;;1.17;;
37483;SDS011;23337;52.212;9.926;2023-03-16T04:29:36;3.17;;;1.13;;
37483;SDS011;23337;52.212;9.926;2023-03-16T04:32:03;3.30;;;1.10;;
37483;SDS011;23337;52.212;9.926;2023-03-16T04:34:29;1.67;;;1.40;;
37483;SDS011;23337;52.212;9.926;2023-03-16T04:36:55;3.03;;;1.57;;
37483;SDS011;23337;52.212;9.926;2023-03-16T04:39:22;5.87;;;1.43;;
37483;SDS011;23337;52.212;9.926;2023-03-16T04:41:48;4.87;;;1.50;;
37483;SDS011;23337;52.212;9.926;2023-03-16T04:44:15;4.23;;;1.33;;
37483;SDS011;23337;52.212;9.926;2023-03-16T04:46:41;5.77;;;1.30;;
37483;SDS011;23337;52.212;9.926;2023-03-16T04:49:07;3.17;;;1.10;;
37483;SDS011;23337;52.212;9.926;2023-03-16T04:51:34;4.53;;;1.63;;
37483;SDS011;23337;52.212;9.926;2023-03-16T04:54:01;3.27;;;1.13;;
37483;SDS011;23337;52.212;9.926;2023-03-16T04:56:26;3.50;;;1.30;;
37483;SDS011;23337;52.212;9.926;2023-03-16T04:58:52;7.27;;;2.10;;
37483;SDS011;23337;52.212;9.926;2023-03-16T05:01:20;4.57;;;1.60;;
37483;SDS011;23337;52.212;9.926;2023-03-16T05:03:47;3.83;;;1.23;;
37483;SDS011;23337;52.212;9.926;2023-03-16T05:06:13;4.57;;;1.30;;
37483;SDS011;23337;52.212;9.926;2023-03-16T05:08:40;3.33;;;1.60;;
37483;SDS011;23337;52.212;9.926;2023-03-16T05:11:06;3.33;;;1.63;;
37483;SDS011;23337;52.212;9.926;2023-03-16T05:13:32;2.17;;;1.17;;
37483;SDS011;23337;52.212;9.926;2023-03-16T05:15:58;3.13;;;1.87;;
37483;SDS011;23337;52.212;9.926;2023-03-16T05:18:24;3.63;;;1.43;;
37483;SDS011;23337;52.212;9.926;2023-03-16T05:20:51;3.60;;;1.33;;
37483;SDS011;23337;52.212;9.926;2023-03-16T05:23:18;3.77;;;1.17;;
37483;SDS011;23337;52.212;9.926;2023-03-16T05:25:45;3.80;;;1.33;;
37483;SDS011;23337;52.212;9.926;2023-03-16T05:28:11;3.80;;;1.43;;
37483;SDS011;23337;52.212;9.926;2023-03-16T05:30:37;3.90;;;1.33;;
37483;SDS011;23337;52.212;9.926;2023-03-16T05:33:03;4.53;;;1.50;;
37483;SDS011;23337;52.212;9.926;2023-03-16T05:35:29;13.93;;;1.90;;
37483;SDS011;23337;52.212;9.926;2023-03-16T05:37:55;3.53;;;1.40;;
37483;SDS011;23337;52.212;9.926;2023-03-16T05:40:21;3.63;;;2.13;;
37483;SDS011;23337;52.212;9.926;2023-03-16T05:42:53;5.27;;;1.97;;
37483;SDS011;23337;52.212;9.926;2023-03-16T05:45:20;3.97;;;2.27;;
37483;SDS011;23337;52.212;9.926;2023-03-16T05:47:46;3.57;;;1.63;;
37483;SDS011;23337;52.212;9.926;2023-03-16T05:50:13;4.33;;;2.03;;
37483;SDS011;23337;52.212;9.926;2023-03-16T05:52:40;6.13;;;1.50;;
37483;SDS011;23337;52.212;9.926;2023-03-16T05:55:07;5.03;;;1.30;;
37483;SDS011;23337;52.212;9.926;2023-03-16T05:57:33;4.60;;;2.77;;
37483;SDS011;23337;52.212;9.926;2023-03-16T05:59:59;4.10;;;2.10;;
37483;SDS011;23337;52.212;9.926;2023-03-16T06:02:26;4.33;;;1.80;;
37483;SDS011;23337;52.212;9.926;2023-03-16T06:04:52;7.97;;;2.07;;
37483;SDS011;23337;52.212;9.926;2023-03-16T06:07:18;5.67;;;2.37;;
37483;SDS011;23337;52.212;9.926;2023-03-16T06:09:44;4.17;;;1.97;;
37483;SDS011;23337;52.212;9.926;2023-03-16T06:12:10;6.23;;;2.33;;
37483;SDS011;23337;52.212;9.926;2023-03-16T06:14:36;4.53;;;1.80;;
37483;SDS011;23337;52.212;9.926;2023-03-16T06:17:02;4.30;;;1.70;;
37483;SDS011;23337;52.212;9.926;2023-03-16T06:19:27;8.03;;;1.80;;
37483;SDS011;23337;52.212;9.926;2023-03-16T06:21:53;3.17;;;1.47;;
37483;SDS011;23337;52.212;9.926;2023-03-16T06:24:19;3.23;;;2.30;;
37483;SDS011;23337;52.212;9.926;2023-03-16T06:26:45;3.43;;;1.30;;
37483;SDS011;23337;52.212;9.926;2023-03-16T06:29:11;4.10;;;1.13;;
37483;SDS011;23337;52.212;9.926;2023-03-16T06:31:37;2.77;;;1.63;;
37483;SDS011;23337;52.212;9.926;2023-03-16T06:34:03;3.67;;;1.77;;
37483;SDS011;23337;52.212;9.926;2023-03-16T06:36:29;5.87;;;1.97;;
37483;SDS011;23337;52.212;9.926;2023-03-16T06:38:55;2.53;;;1.40;;
37483;SDS011;23337;52.212;9.926;2023-03-16T06:41:21;5.50;;;1.90;;
37483;SDS011;23337;52.212;9.926;2023-03-16T06:43:47;4.30;;;1.30;;
37483;SDS011;23337;52.212;9.926;2023-03-16T06:46:13;3.43;;;1.53;;
37483;SDS011;23337;52.212;9.926;2023-03-16T06:48:39;4.17;;;1.93;;
37483;SDS011;23337;52.212;9.926;2023-03-16T06:51:05;2.73;;;1.40;;
37483;SDS011;23337;52.212;9.926;2023-03-16T06:53:31;4.03;;;1.73;;
37483;SDS011;23337;52.212;9.926;2023-03-16T06:55:57;2.73;;;1.20;;
37483;SDS011;23337;52.212;9.926;2023-03-16T06:58:23;5.00;;;1.70;;
37483;SDS011;23337;52.212;9.926;2023-03-16T07:00:49;4.57;;;1.50;;
37483;SDS011;23337;52.212;9.926;2023-03-16T07:03:17;2.20;;;1.27;;
37483;SDS011;23337;52.212;9.926;2023-03-16T07:05:43;3.37;;;1.33;;
37483;SDS011;23337;52.212;9.926;2023-03-16T07:08:09;3.90;;;1.60;;
37483;SDS011;23337;52.212;9.926;2023-03-16T07:10:35;2.37;;;1.13;;
37483;SDS011;23337;52.212;9.926;2023-03-16T07:13:01;2.60;;;0.90;;
37483;SDS011;23337;52.212;9.926;2023-03-16T07:15:28;4.60;;;1.50;;
37483;SDS011;23337;52.212;9.926;2023-03-16T07:17:54;5.00;;;1.67;;
37483;SDS011;23337;52.212;9.926;2023-03-16T07:20:20;3.70;;;1.30;;
37483;SDS011;23337;52.212;9.926;2023-03-16T07:22:46;3.93;;;1.40;;
37483;SDS011;23337;52.212;9.926;2023-03-16T07:25:12;3.10;;;1.20;;
37483;SDS011;23337;52.212;9.926;2023-03-16T07:27:38;6.20;;;1.40;;
37483;SDS011;23337;52.212;9.926;2023-03-16T07:30:05;2.03;;;1.10;;
37483;SDS011;23337;52.212;9.926;2023-03-16T07:32:31;2.73;;;1.67;;
37483;SDS011;23337;52.212;9.926;2023-03-16T07:34:57;5.17;;;1.30;;
37483;SDS011;23337;52.212;9.926;2023-03-16T07:37:24;2.50;;;1.30;;
37483;SDS011;23337;52.212;9.926;2023-03-16T07:39:50;4.47;;;1.23;;
37483;SDS011;23337;52.212;9.926;2023-03-16T07:42:16;2.27;;;1.33;;
37483;SDS011;23337;52.212;9.926;2023-03-16T07:44:42;4.53;;;1.40;;
37483;SDS011;23337;52.212;9.926;2023-03-16T07:47:10;4.50;;;1.67;;
37483;SDS011;23337;52.212;9.926;2023-03-16T07:49:37;2.50;;;1.00;;
37483;SDS011;23337;52.212;9.926;2023-03-16T07:52:03;3.47;;;1.03;;
37483;SDS011;23337;52.212;9.926;2023-03-16T07:54:29;6.17;;;1.60;;
37483;SDS011;23337;52.212;9.926;2023-03-16T07:56:54;3.70;;;1.00;;
37483;SDS011;23337;52.212;9.926;2023-03-16T07:59:21;4.90;;;1.23;;
37483;SDS011;23337;52.212;9.926;2023-03-16T08:01:47;6.93;;;1.53;;
37483;SDS011;23337;52.212;9.926;2023-03-16T08:04:13;3.03;;;2.03;;
37483;SDS011;23337;52.212;9.926;2023-03-16T08:06:39;2.30;;;1.17;;
37483;SDS011;23337;52.212;9.926;2023-03-16T08:09:06;2.83;;;1.20;;
37483;SDS011;23337;52.212;9.926;2023-03-16T08:11:32;3.47;;;1.60;;
37483;SDS011;23337;52.212;9.926;2023-03-16T08:13:58;2.60;;;0.93;;
37483;SDS011;23337;52.212;9.926;2023-03-16T08:16:24;2.43;;;1.10;;
37483;SDS011;23337;52.212;9.926;2023-03-16T08:18:51;1.40;;;0.90;;
37483;SDS011;23337;52.212;9.926;2023-03-16T08:21:17;3.37;;;0.80;;
37483;SDS011;23337;52.212;9.926;2023-03-16T08:23:44;4.30;;;0.70;;
37483;SDS011;23337;52.212;9.926;2023-03-16T08:26:13;1.53;;;0.87;;
37483;SDS011;23337;52.212;9.926;2023-03-16T08:28:41;2.47;;;1.07;;
37483;SDS011;23337;52.212;9.926;2023-03-16T08:31:07;3.83;;;1.20;;
37483;SDS011;23337;52.212;9.926;2023-03-16T08:33:33;6.17;;;1.17;;
37483;SDS011;23337;52.212;9.926;2023-03-16T08:36:00;1.63;;;0.97;;
37483;SDS011;23337;52.212;9.926;2023-03-16T08:38:26;3.53;;;0.93;;
37483;SDS011;23337;52.212;9.926;2023-03-16T08:40:52;4.40;;;1.03;;
37483;SDS011;23337;52.212;9.926;2023-03-16T08:43:18;6.63;;;2.27;;
37483;SDS011;23337;52.212;9.926;2023-03-16T08:45:44;4.23;;;1.20;;
37483;SDS011;23337;52.212;9.926;2023-03-16T08:48:10;3.97;;;1.10;;
37483;SDS011;23337;52.212;9.926;2023-03-16T08:50:38;4.57;;;0.87;;
37483;SDS011;23337;52.212;9.926;2023-03-16T08:53:04;3.20;;;0.80;;
37483;SDS011;23337;52.212;9.926;2023-03-16T08:55:30;2.63;;;0.90;;
37483;SDS011;23337;52.212;9.926;2023-03-16T08:57:56;2.90;;;0.90;;
37483;SDS011;23337;52.212;9.926;2023-03-16T09:00:23;5.80;;;1.10;;
37483;SDS011;23337;52.212;9.926;2023-03-16T09:02:49;3.70;;;0.80;;
37483;SDS011;23337;52.212;9.926;2023-03-16T09:05:15;4.87;;;1.20;;
37483;SDS011;23337;52.212;9.926;2023-03-16T09:07:42;3.13;;;1.20;;
37483;SDS011;23337;52.212;9.926;2023-03-16T09:10:08;2.23;;;1.30;;
37483;SDS011;23337;52.212;9.926;2023-03-16T09:12:37;4.17;;;1.67;;
37483;SDS011;23337;52.212;9.926;2023-03-16T09:15:04;2.57;;;1.10;;
37483;SDS011;23337;52.212;9.926;2023-03-16T09:17:31;3.93;;;1.10;;
37483;SDS011;23337;52.212;9.926;2023-03-16T09:19:57;3.17;;;1.37;;
37483;SDS011;23337;52.212;9.926;2023-03-16T09:22:23;4.17;;;1.03;;
37483;SDS011;23337;52.212;9.926;2023-03-16T09:24:49;8.07;;;1.50;;
37483;SDS011;23337;52.212;9.926;2023-03-16T09:27:15;4.43;;;1.70;;
37483;SDS011;23337;52.212;9.926;2023-03-16T09:29:42;4.63;;;1.10;;
37483;SDS011;23337;52.212;9.926;2023-03-16T09:32:09;4.20;;;1.53;;
37483;SDS011;23337;52.212;9.926;2023-03-16T09:34:35;4.10;;;1.10;;
37483;SDS011;23337;52.212;9.926;2023-03-16T09:37:01;4.37;;;1.70;;
37483;SDS011;23337;52.212;9.926;2023-03-16T09:39:27;5.43;;;1.30;;
37483;SDS011;23337;52.212;9.926;2023-03-16T09:42:06;3.23;;;1.07;;
37483;SDS011;23337;52.212;9.926;2023-03-16T09:47:22;2.90;;;1.13;;
37483;SDS011;23337;52.212;9.926;2023-03-16T09:49:50;2.13;;;0.80;;
37483;SDS011;23337;52.212;9.926;2023-03-16T09:57:35;3.90;;;1.10;;
37483;SDS011;23337;52.212;9.926;2023-03-16T10:00:13;3.03;;;1.20;;
37483;SDS011;23337;52.212;9.926;2023-03-16T10:02:45;2.07;;;1.03;;
37483;SDS011;23337;52.212;9.926;2023-03-16T10:05:16;4.77;;;1.20;;
37483;SDS011;23337;52.212;9.926;2023-03-16T10:15:46;3.07;;;1.27;;
37483;SDS011;23337;52.212;9.926;2023-03-16T10:18:15;4.37;;;2.00;;
37483;SDS011;23337;52.212;9.926;2023-03-16T10:20:42;4.50;;;1.17;;
37483;SDS011;23337;52.212;9.926;2023-03-16T10:23:19;4.00;;;1.00;;
37483;SDS011;23337;52.212;9.926;2023-03-16T10:25:47;3.90;;;1.30;;
37483;SDS011;23337;52.212;9.926;2023-03-16T10:28:18;2.70;;;1.10;;
37483;SDS011;23337;52.212;9.926;2023-03-16T10:30:44;4.30;;;1.20;;
37483;SDS011;23337;52.212;9.926;2023-03-16T10:35:45;2.17;;;0.80;;
37483;SDS011;23337;52.212;9.926;2023-03-16T10:40:55;2.77;;;0.90;;
37483;SDS011;23337;52.212;9.926;2023-03-16T10:43:24;4.03;;;1.00;;
37483;SDS011;23337;52.212;9.926;2023-03-16T10:45:50;1.40;;;0.73;;
37483;SDS011;23337;52.212;9.926;2023-03-16T10:48:17;3.77;;;1.30;;
37483;SDS011;23337;52.212;9.926;2023-03-16T10:50:47;1.77;;;1.03;;
37483;SDS011;23337;52.212;9.926;2023-03-16T10:53:29;3.70;;;1.20;;
37483;SDS011;23337;52.212;9.926;2023-03-16T10:55:57;3.40;;;1.10;;
37483;SDS011;23337;52.212;9.926;2023-03-16T10:58:31;2.80;;;1.07;;
37483;SDS011;23337;52.212;9.926;2023-03-16T11:00:58;3.00;;;1.20;;
37483;SDS011;23337;52.212;9.926;2023-03-16T11:03:28;2.60;;;1.30;;
37483;SDS011;23337;52.212;9.926;2023-03-16T11:06:00;3.97;;;1.57;;
37483;SDS011;23337;52.212;9.926;2023-03-16T11:08:26;2.77;;;1.03;;
37483;SDS011;23337;52.212;9.926;2023-03-16T11:11:16;3.20;;;1.00;;
37483;SDS011;23337;52.212;9.926;2023-03-16T11:13:45;2.30;;;0.80;;
37483;SDS011;23337;52.212;9.926;2023-03-16T11:18:47;3.87;;;1.00;;
37483;SDS011;23337;52.212;9.926;2023-03-16T11:21:36;2.10;;;1.03;;
37483;SDS011;23337;52.212;9.926;2023-03-16T11:24:03;1.63;;;0.90;;
37483;SDS011;23337;52.212;9.926;2023-03-16T11:26:32;3.53;;;0.90;;
37483;SDS011;23337;52.212;9.926;2023-03-16T11:29:00;1.60;;;0.90;;
37483;SDS011;23337;52.212;9.926;2023-03-16T11:31:32;2.97;;;0.63;;
37483;SDS011;23337;52.212;9.926;2023-03-16T11:34:17;2.93;;;0.90;;
37483;SDS011;23337;52.212;9.926;2023-03-16T11:49:34;1.87;;;0.83;;
37483;SDS011;23337;52.212;9.926;2023-03-16T11:54:58;1.73;;;0.83;;
37483;SDS011;23337;52.212;9.926;2023-03-16T12:15:33;3.90;;;0.93;;
37483;SDS011;23337;52.212;9.926;2023-03-16T12:18:22;2.13;;;1.07;;
37483;SDS011;23337;52.212;9.926;2023-03-16T12:23:14;4.00;;;1.23;;
37483;SDS011;23337;52.212;9.926;2023-03-16T12:25:46;3.40;;;1.10;;
37483;SDS011;23337;52.212;9.926;2023-03-16T12:28:16;2.47;;;1.10;;
37483;SDS011;23337;52.212;9.926;2023-03-16T12:33:46;2.20;;;1.00;;
37483;SDS011;23337;52.212;9.926;2023-03-16T12:36:23;1.87;;;1.07;;
37483;SDS011;23337;52.212;9.926;2023-03-16T12:39:04;1.93;;;0.97;;
37483;SDS011;23337;52.212;9.926;2023-03-16T12:44:21;2.00;;;0.83;;
37483;SDS011;23337;52.212;9.926;2023-03-16T12:49:17;2.47;;;1.10;;
37483;SDS011;23337;52.212;9.926;2023-03-16T12:51:44;2.40;;;0.80;;
37483;SDS011;23337;52.212;9.926;2023-03-16T12:54:19;1.37;;;0.93;;
37483;SDS011;23337;52.212;9.926;2023-03-16T12:56:46;1.00;;;0.63;;
37483;SDS011;23337;52.212;9.926;2023-03-16T12:59:15;2.93;;;0.80;;
37483;SDS011;23337;52.212;9.926;2023-03-16T13:01:42;0.90;;;0.53;;
37483;SDS011;23337;52.212;9.926;2023-03-16T13:04:11;2.63;;;0.93;;
37483;SDS011;23337;52.212;9.926;2023-03-16T13:06:41;1.57;;;0.70;;
37483;SDS011;23337;52.212;9.926;2023-03-16T13:09:07;2.60;;;1.27;;
37483;SDS011;23337;52.212;9.926;2023-03-16T13:11:54;2.23;;;1.47;;
37483;SDS011;23337;52.212;9.926;2023-03-16T13:14:37;2.27;;;0.97;;
37483;SDS011;23337;52.212;9.926;2023-03-16T13:17:05;1.37;;;0.60;;
37483;SDS011;23337;52.212;9.926;2023-03-16T13:19:31;1.83;;;0.73;;
37483;SDS011;23337;52.212;9.926;2023-03-16T13:24:52;0.53;;;0.50;;
37483;SDS011;23337;52.212;9.926;2023-03-16T13:27:25;1.50;;;0.70;;
37483;SDS011;23337;52.212;9.926;2023-03-16T13:29:52;1.63;;;0.87;;
37483;SDS011;23337;52.212;9.926;2023-03-16T13:32:18;0.70;;;0.60;;
37483;SDS011;23337;52.212;9.926;2023-03-16T13:34:46;0.80;;;0.60;;
37483;SDS011;23337;52.212;9.926;2023-03-16T13:37:14;3.53;;;0.90;;
37483;SDS011;23337;52.212;9.926;2023-03-16T13:39:41;2.73;;;1.13;;
37483;SDS011;23337;52.212;9.926;2023-03-16T13:44:33;2.13;;;1.07;;
37483;SDS011;23337;52.212;9.926;2023-03-16T13:47:03;2.33;;;1.30;;
37483;SDS011;23337;52.212;9.926;2023-03-16T13:49:31;1.90;;;1.20;;
37483;SDS011;23337;52.212;9.926;2023-03-16T13:51:57;1.73;;;1.00;;
37483;SDS011;23337;52.212;9.926;2023-03-16T13:54:29;4.03;;;1.30;;
37483;SDS011;23337;52.212;9.926;2023-03-16T13:56:56;1.50;;;1.00;;
37483;SDS011;23337;52.212;9.926;2023-03-16T13:59:23;1.47;;;0.87;;
37483;SDS011;23337;52.212;9.926;2023-03-16T14:01:53;3.57;;;1.17;;
37483;SDS011;23337;52.212;9.926;2023-03-16T14:04:22;3.50;;;1.23;;
37483;SDS011;23337;52.212;9.926;2023-03-16T14:06:58;2.03;;;1.00;;
37483;SDS011;23337;52.212;9.926;2023-03-16T14:09:27;3.57;;;1.60;;
37483;SDS011;23337;52.212;9.926;2023-03-16T14:11:55;3.40;;;1.47;;
37483;SDS011;23337;52.212;9.926;2023-03-16T14:16:50;3.53;;;1.30;;
37483;SDS011;23337;52.212;9.926;2023-03-16T14:19:19;2.73;;;1.10;;
37483;SDS011;23337;52.212;9.926;2023-03-16T14:21:46;2.70;;;1.30;;
37483;SDS011;23337;52.212;9.926;2023-03-16T14:26:52;1.93;;;0.90;;
37483;SDS011;23337;52.212;9.926;2023-03-16T14:29:26;3.23;;;1.30;;
37483;SDS011;23337;52.212;9.926;2023-03-16T14:31:52;2.40;;;1.20;;
37483;SDS011;23337;52.212;9.926;2023-03-16T14:36:45;2.27;;;1.00;;
37483;SDS011;23337;52.212;9.926;2023-03-16T14:39:12;3.23;;;1.07;;
37483;SDS011;23337;52.212;9.926;2023-03-16T14:41:38;2.37;;;1.13;;
37483;SDS011;23337;52.212;9.926;2023-03-16T14:44:04;1.77;;;1.10;;
37483;SDS011;23337;52.212;9.926;2023-03-16T14:46:32;2.80;;;1.00;;
37483;SDS011;23337;52.212;9.926;2023-03-16T14:49:02;1.97;;;1.40;;
37483;SDS011;23337;52.212;9.926;2023-03-16T14:51:31;2.03;;;0.90;;
37483;SDS011;23337;52.212;9.926;2023-03-16T14:53:58;2.77;;;1.10;;
37483;SDS011;23337;52.212;9.926;2023-03-16T14:56:30;2.10;;;1.37;;
37483;SDS011;23337;52.212;9.926;2023-03-16T14:58:56;2.43;;;1.13;;
37483;SDS011;23337;52.212;9.926;2023-03-16T15:01:22;1.60;;;1.10;;
37483;SDS011;23337;52.212;9.926;2023-03-16T15:03:49;1.30;;;1.13;;
37483;SDS011;23337;52.212;9.926;2023-03-16T15:06:16;1.67;;;1.10;;
37483;SDS011;23337;52.212;9.926;2023-03-16T15:08:42;3.03;;;1.67;;
37483;SDS011;23337;52.212;9.926;2023-03-16T15:11:09;2.90;;;1.23;;
37483;SDS011;23337;52.212;9.926;2023-03-16T15:13:35;3.83;;;1.03;;
37483;SDS011;23337;52.212;9.926;2023-03-16T15:16:11;1.87;;;1.07;;
37483;SDS011;23337;52.212;9.926;2023-03-16T15:18:37;3.07;;;1.30;;
37483;SDS011;23337;52.212;9.926;2023-03-16T15:21:08;1.27;;;1.10;;
37483;SDS011;23337;52.212;9.926;2023-03-16T15:23:36;1.83;;;1.37;;
37483;SDS011;23337;52.212;9.926;2023-03-16T15:26:02;3.67;;;1.23;;
37483;SDS011;23337;52.212;9.926;2023-03-16T15:28:29;3.50;;;1.20;;
37483;SDS011;23337;52.212;9.926;2023-03-16T15:30:56;1.73;;;1.00;;
37483;SDS011;23337;52.212;9.926;2023-03-16T15:33:23;1.27;;;1.00;;
37483;SDS011;23337;52.212;9.926;2023-03-16T15:35:50;2.53;;;1.30;;
37483;SDS011;23337;52.212;9.926;2023-03-16T15:38:22;3.07;;;1.33;;
37483;SDS011;23337;52.212;9.926;2023-03-16T15:40:48;1.70;;;1.23;;
37483;SDS011;23337;52.212;9.926;2023-03-16T15:43:16;3.13;;;1.20;;
37483;SDS011;23337;52.212;9.926;2023-03-16T15:45:43;2.00;;;0.90;;
37483;SDS011;23337;52.212;9.926;2023-03-16T15:48:10;2.30;;;1.50;;
37483;SDS011;23337;52.212;9.926;2023-03-16T15:50:37;1.20;;;0.80;;
37483;SDS011;23337;52.212;9.926;2023-03-16T15:53:05;1.47;;;1.00;;
37483;SDS011;23337;52.212;9.926;2023-03-16T15:55:34;1.90;;;0.93;;
37483;SDS011;23337;52.212;9.926;2023-03-16T15:58:01;1.30;;;0.63;;
37483;SDS011;23337;52.212;9.926;2023-03-16T16:00:29;3.87;;;0.93;;
37483;SDS011;23337;52.212;9.926;2023-03-16T16:02:57;2.63;;;0.90;;
37483;SDS011;23337;52.212;9.926;2023-03-16T16:05:23;1.57;;;0.73;;
37483;SDS011;23337;52.212;9.926;2023-03-16T16:07:49;3.87;;;1.07;;
37483;SDS011;23337;52.212;9.926;2023-03-16T16:10:15;1.10;;;0.80;;
37483;SDS011;23337;52.212;9.926;2023-03-16T16:12:45;1.77;;;0.80;;
37483;SDS011;23337;52.212;9.926;2023-03-16T16:15:36;2.70;;;1.00;;
37483;SDS011;23337;52.212;9.926;2023-03-16T16:18:03;2.57;;;0.70;;
37483;SDS011;23337;52.212;9.926;2023-03-16T16:20:34;2.63;;;0.77;;
37483;SDS011;23337;52.212;9.926;2023-03-16T16:23:00;2.17;;;0.83;;